Time;durP1;ratioP1;P1;durP2;ratioP2;P2;SDS_P1;SDS_P2;PMS_P1;PMS_P2;Temp;Humidity;BMP_temperature;BMP_pressure;BME280_temperature;BME280_humidity;BME280_pressure;Samples;Min_cycle;Max_cycle;Signal;HPM_P1;HPM_P2
2024/01/23 00:00:48;;;;;;;54.03;31.77;;;9.40;99.90;;;;;;4907866;29;20222;-79
2024/01/23 00:03:15;;;;;;;14.75;8.10;;;9.50;99.90;;;;;;4899427;29;20286;-79
2024/01/23 00:05:43;;;;;;;16.77;8.20;;;9.50;99.90;;;;;;4898008;29;20230;-76
2024/01/23 00:08:10;;;;;;;11.50;6.60;;;9.50;99.90;;;;;;4906997;29;20221;-79
2024/01/23 00:10:37;;;;;;;10.48;3.90;;;9.50;99.90;;;;;;4897165;29;20302;-77
2024/01/23 00:13:05;;;;;;;8.50;4.50;;;9.50;99.90;;;;;;4896735;29;20719;-77
2024/01/23 00:15:36;;;;;;;16.80;7.18;;;9.40;99.90;;;;;;4900234;29;20808;-76
2024/01/23 00:18:06;;;;;;;20.50;13.40;;;9.40;99.90;;;;;;4895215;29;20218;-79
2024/01/23 00:20:33;;;;;;;18.35;8.10;;;9.30;99.90;;;;;;4902473;29;20225;-77
2024/01/23 00:23:00;;;;;;;13.95;7.60;;;9.40;99.90;;;;;;4896213;29;20879;-79
2024/01/23 00:25:27;;;;;;;7.53;4.25;;;9.40;99.90;;;;;;4904897;29;20642;-79
2024/01/23 00:27:54;;;;;;;7.38;4.30;;;9.40;99.90;;;;;;4897907;29;20233;-79
2024/01/23 00:30:21;;;;;;;11.30;7.22;;;9.50;99.90;;;;;;4894047;29;20234;-79
2024/01/23 00:32:49;;;;;;;7.47;3.95;;;9.50;99.90;;;;;;4899741;29;20245;-81
2024/01/23 00:35:18;;;;;;;7.07;3.08;;;9.50;99.90;;;;;;4911204;29;20311;-76
2024/01/23 00:37:45;;;;;;;16.33;8.43;;;9.50;99.90;;;;;;4915767;29;20229;-76
2024/01/23 00:40:12;;;;;;;10.82;5.97;;;9.60;99.90;;;;;;4915739;29;20237;-76
2024/01/23 00:42:40;;;;;;;23.13;14.20;;;9.50;99.90;;;;;;4902478;29;20234;-76
2024/01/23 00:45:08;;;;;;;14.55;8.75;;;9.60;99.90;;;;;;4899980;29;20230;-79
2024/01/23 00:47:39;;;;;;;7.95;5.50;;;9.50;99.90;;;;;;4898145;29;20247;-80
2024/01/23 00:50:07;;;;;;;6.75;3.15;;;9.50;99.90;;;;;;4891789;29;20249;-79
2024/01/23 00:52:35;;;;;;;9.02;4.93;;;9.50;99.90;;;;;;4899733;29;20256;-77
2024/01/23 00:55:06;;;;;;;8.25;3.50;;;9.50;99.90;;;;;;4898432;29;20227;-77
2024/01/23 00:57:33;;;;;;;5.50;2.70;;;9.50;99.90;;;;;;4896682;29;20245;-77
2024/01/23 01:00:01;;;;;;;7.20;3.80;;;9.50;99.90;;;;;;4907348;29;20226;-80
2024/01/23 01:02:28;;;;;;;6.35;4.78;;;9.50;99.90;;;;;;4915835;29;20250;-78
2024/01/23 01:04:55;;;;;;;7.10;3.65;;;9.50;99.90;;;;;;4895566;29;20320;-79
2024/01/23 01:07:22;;;;;;;13.65;7.03;;;9.50;99.90;;;;;;4896890;29;20294;-79
2024/01/23 01:09:51;;;;;;;6.55;3.10;;;9.50;99.90;;;;;;4898968;29;20759;-80
2024/01/23 01:12:20;;;;;;;22.85;11.13;;;9.50;99.90;;;;;;4901691;29;20230;-80
2024/01/23 01:14:47;;;;;;;11.50;5.53;;;9.50;99.90;;;;;;4909914;29;20225;-80
2024/01/23 01:17:14;;;;;;;9.25;5.32;;;9.50;99.90;;;;;;4904474;29;20237;-78
2024/01/23 01:19:41;;;;;;;6.57;3.22;;;9.30;99.90;;;;;;4900088;29;20226;-77
2024/01/23 01:22:08;;;;;;;4.88;3.40;;;9.30;99.90;;;;;;4917092;29;20226;-80
2024/01/23 01:24:35;;;;;;;65.75;36.35;;;9.30;99.90;;;;;;4903149;29;20246;-78
2024/01/23 01:27:04;;;;;;;23.60;17.27;;;9.30;99.90;;;;;;4896808;29;20229;-80
2024/01/23 01:29:31;;;;;;;5.30;3.67;;;9.30;99.90;;;;;;4896789;29;20241;-77
2024/01/23 01:31:59;;;;;;;6.57;3.88;;;9.30;99.90;;;;;;4896760;29;20237;-78
2024/01/23 01:34:28;;;;;;;7.15;5.63;;;9.20;99.90;;;;;;4896229;29;20536;-77
2024/01/23 01:36:55;;;;;;;6.00;4.50;;;9.20;99.90;;;;;;4897162;29;20542;-78
2024/01/23 01:39:22;;;;;;;7.38;3.70;;;9.30;99.90;;;;;;4896816;29;20237;-78
2024/01/23 01:41:53;;;;;;;7.43;3.10;;;9.30;99.90;;;;;;4899227;29;20230;-77
2024/01/23 01:44:21;;;;;;;5.05;3.40;;;9.30;99.90;;;;;;4898461;29;20305;-77
2024/01/23 01:46:49;;;;;;;8.75;4.45;;;9.30;99.90;;;;;;4899033;29;20309;-80
2024/01/23 01:49:17;;;;;;;5.90;2.92;;;9.30;99.90;;;;;;4897811;29;20677;-80
2024/01/23 01:51:45;;;;;;;22.13;12.25;;;9.30;99.90;;;;;;4898758;29;20241;-78
2024/01/23 01:54:13;;;;;;;5.00;2.25;;;9.30;99.90;;;;;;4898297;29;20233;-80
2024/01/23 01:56:42;;;;;;;6.68;3.03;;;9.20;99.90;;;;;;4898018;29;20233;-79
2024/01/23 01:59:09;;;;;;;16.77;6.93;;;9.20;99.90;;;;;;4898369;29;20245;-77
2024/01/23 02:01:39;;;;;;;6.70;3.47;;;9.20;99.90;;;;;;4898184;29;20241;-80
2024/01/23 02:04:06;;;;;;;30.88;15.30;;;9.20;99.90;;;;;;4898455;29;20689;-80
2024/01/23 02:06:35;;;;;;;6.85;3.85;;;9.20;99.90;;;;;;4897843;29;20626;-77
2024/01/23 02:09:02;;;;;;;3.17;2.05;;;9.20;99.90;;;;;;4898710;29;20230;-77
2024/01/23 02:11:32;;;;;;;2.33;1.83;;;9.10;99.90;;;;;;4898175;29;20230;-77
2024/01/23 02:13:59;;;;;;;8.35;2.33;;;9.10;99.90;;;;;;4898313;29;20237;-80
2024/01/23 02:16:26;;;;;;;6.35;3.25;;;9.10;99.90;;;;;;4897432;29;20225;-80
2024/01/23 02:18:55;;;;;;;6.30;3.15;;;9.10;99.90;;;;;;4898714;29;20238;-80
2024/01/23 02:21:22;;;;;;;5.18;2.13;;;9.10;99.90;;;;;;4898105;29;20225;-80
2024/01/23 02:23:50;;;;;;;9.13;3.17;;;9.00;99.90;;;;;;4898207;29;20230;-80
2024/01/23 02:26:18;;;;;;;4.43;2.17;;;9.00;99.90;;;;;;4898032;29;20229;-77
2024/01/23 02:28:48;;;;;;;5.35;1.80;;;9.00;99.90;;;;;;4897768;29;20612;-80
2024/01/23 02:31:15;;;;;;;3.92;2.47;;;9.00;99.90;;;;;;4898388;29;20256;-80
2024/01/23 02:33:43;;;;;;;5.20;2.50;;;9.00;99.90;;;;;;4897857;29;20236;-77
2024/01/23 02:36:10;;;;;;;6.75;3.75;;;9.00;99.90;;;;;;4901576;29;20293;-80
2024/01/23 02:38:38;;;;;;;4.22;1.85;;;9.00;99.90;;;;;;4901922;29;20229;-77
2024/01/23 02:41:06;;;;;;;5.05;2.00;;;9.00;99.90;;;;;;4902211;29;20222;-80
2024/01/23 02:43:34;;;;;;;6.25;2.42;;;9.00;99.90;;;;;;4901741;29;20237;-77
2024/01/23 02:46:01;;;;;;;8.18;3.63;;;8.90;99.90;;;;;;4901996;29;20226;-77
2024/01/23 02:48:28;;;;;;;4.15;2.30;;;8.90;99.90;;;;;;4901539;29;20226;-77
2024/01/23 02:50:55;;;;;;;7.40;2.70;;;8.90;99.90;;;;;;4901873;29;20257;-77
2024/01/23 02:53:22;;;;;;;5.30;2.80;;;8.90;99.90;;;;;;4900545;29;20700;-78
2024/01/23 02:55:49;;;;;;;4.63;2.83;;;8.90;99.90;;;;;;4901817;29;20225;-77
2024/01/23 02:58:18;;;;;;;5.88;2.50;;;8.90;99.90;;;;;;4901703;29;20543;-78
2024/01/23 03:00:45;;;;;;;6.57;4.03;;;8.90;99.90;;;;;;4901165;29;20230;-77
2024/01/23 03:03:12;;;;;;;6.05;3.25;;;8.90;99.90;;;;;;4901591;29;20245;-78
2024/01/23 03:05:40;;;;;;;6.18;3.05;;;8.90;99.90;;;;;;4901027;29;20230;-78
2024/01/23 03:08:07;;;;;;;2.50;2.03;;;8.90;99.90;;;;;;4901231;29;20230;-77
2024/01/23 03:10:34;;;;;;;5.45;2.50;;;8.90;99.90;;;;;;4900837;29;20238;-77
2024/01/23 03:13:02;;;;;;;11.93;6.28;;;8.90;99.90;;;;;;4901407;29;20230;-80
2024/01/23 03:15:30;;;;;;;6.15;4.68;;;8.90;99.90;;;;;;4900780;29;20230;-80
2024/01/23 03:17:58;;;;;;;6.40;2.63;;;9.00;99.90;;;;;;4901567;29;20237;-77
2024/01/23 03:20:29;;;;;;;6.45;2.85;;;8.90;99.90;;;;;;4900649;29;20309;-80
2024/01/23 03:22:56;;;;;;;48.45;22.98;;;9.00;99.90;;;;;;4901103;29;20736;-80
2024/01/23 03:25:23;;;;;;;6.60;4.20;;;9.00;99.90;;;;;;4901412;29;20321;-80
2024/01/23 03:27:51;;;;;;;12.13;6.13;;;9.00;99.90;;;;;;4900224;29;20228;-80
2024/01/23 03:30:32;;;;;;;4.20;2.50;;;9.00;99.90;;;;;;4891287;29;20234;-81
2024/01/23 03:33:00;;;;;;;2.63;2.33;;;9.00;99.90;;;;;;4901086;29;20685;-80
2024/01/23 03:35:27;;;;;;;4.65;2.47;;;9.00;99.90;;;;;;4900586;29;20245;-80
2024/01/23 03:37:54;;;;;;;5.22;2.42;;;9.00;99.90;;;;;;4900998;29;20685;-80
2024/01/23 03:40:21;;;;;;;11.80;8.13;;;9.10;99.90;;;;;;4900684;29;20278;-80
2024/01/23 03:42:48;;;;;;;3.83;3.10;;;9.00;99.90;;;;;;4900995;29;20305;-80
2024/01/23 03:45:15;;;;;;;9.05;4.75;;;9.10;99.90;;;;;;4900406;29;20236;-80
2024/01/23 03:47:47;;;;;;;9.88;6.03;;;9.00;99.90;;;;;;4900764;29;20222;-80
2024/01/23 03:50:14;;;;;;;24.48;15.13;;;9.00;99.90;;;;;;4900354;29;20341;-80
2024/01/23 03:52:41;;;;;;;5.93;3.72;;;9.00;99.90;;;;;;4900510;29;20226;-77
2024/01/23 03:55:08;;;;;;;6.85;3.05;;;9.00;99.90;;;;;;4900547;29;20579;-77
2024/01/23 03:57:35;;;;;;;3.03;2.20;;;9.00;99.90;;;;;;4900490;29;20241;-77
2024/01/23 04:00:03;;;;;;;7.00;2.13;;;8.90;99.90;;;;;;4900550;29;20289;-78
2024/01/23 04:02:31;;;;;;;4.40;2.63;;;8.90;99.90;;;;;;4899634;29;20285;-80
2024/01/23 04:04:59;;;;;;;6.82;3.20;;;9.00;99.90;;;;;;4900258;29;20565;-80
2024/01/23 04:07:28;;;;;;;6.28;2.88;;;8.90;99.90;;;;;;4899456;29;20244;-80
2024/01/23 04:09:55;;;;;;;5.45;2.50;;;8.90;99.90;;;;;;4900252;29;20241;-80
2024/01/23 04:12:22;;;;;;;7.47;3.13;;;8.90;99.90;;;;;;4899949;29;20700;-81
2024/01/23 04:14:50;;;;;;;7.75;3.10;;;8.90;99.90;;;;;;4900544;29;20559;-80
2024/01/23 04:17:18;;;;;;;7.45;4.10;;;8.90;99.90;;;;;;4899547;29;20230;-77
2024/01/23 04:19:45;;;;;;;8.95;3.25;;;9.00;99.90;;;;;;4900269;29;20704;-77
2024/01/23 04:22:13;;;;;;;4.25;3.00;;;8.90;99.90;;;;;;4899777;29;20240;-78
2024/01/23 04:24:41;;;;;;;8.57;4.72;;;9.00;99.90;;;;;;4900371;29;20661;-77
2024/01/23 04:27:08;;;;;;;2.92;2.25;;;8.90;99.90;;;;;;4900090;29;20538;-77
2024/01/23 04:29:35;;;;;;;3.92;2.28;;;8.90;99.90;;;;;;4899880;29;25428;-77
2024/01/23 04:32:02;;;;;;;7.25;3.00;;;9.00;99.90;;;;;;4899903;29;20241;-77
2024/01/23 04:34:29;;;;;;;5.68;2.25;;;8.90;99.90;;;;;;4899543;29;20573;-77
2024/01/23 04:36:56;;;;;;;5.07;2.15;;;8.90;99.90;;;;;;4899859;29;20226;-78
2024/01/23 04:39:28;;;;;;;5.05;2.75;;;9.00;99.90;;;;;;4899581;29;20868;-78
2024/01/23 04:41:55;;;;;;;8.98;2.40;;;9.00;99.90;;;;;;4899848;29;20233;-78
2024/01/23 04:44:22;;;;;;;5.05;2.83;;;9.00;99.90;;;;;;4899386;29;20232;-78
2024/01/23 04:46:49;;;;;;;4.43;2.00;;;8.90;99.90;;;;;;4899858;29;20229;-77
2024/01/23 04:49:16;;;;;;;4.25;2.03;;;8.90;99.90;;;;;;4899674;29;20234;-77
2024/01/23 04:51:46;;;;;;;5.10;2.58;;;8.90;99.90;;;;;;4898674;29;20233;-77
2024/01/23 04:54:13;;;;;;;9.77;3.05;;;8.80;99.90;;;;;;4899686;29;20222;-80
2024/01/23 04:56:42;;;;;;;4.68;2.90;;;8.80;99.90;;;;;;4899081;29;20230;-77
2024/01/23 04:59:08;;;;;;;4.97;2.38;;;8.80;99.90;;;;;;4899192;29;20230;-77
2024/01/23 05:01:36;;;;;;;5.38;3.70;;;8.80;99.90;;;;;;4899080;29;20240;-77
2024/01/23 05:04:03;;;;;;;3.00;1.50;;;8.80;99.90;;;;;;4899398;29;20226;-77
2024/01/23 05:06:30;;;;;;;7.13;2.22;;;8.70;99.90;;;;;;4898744;29;20252;-80
2024/01/23 05:08:57;;;;;;;3.08;1.60;;;8.70;99.90;;;;;;4899316;29;20233;-81
2024/01/23 05:11:24;;;;;;;5.35;3.25;;;8.70;99.90;;;;;;4898257;29;20416;-80
2024/01/23 05:13:53;;;;;;;9.93;3.08;;;8.70;99.90;;;;;;4899173;29;20234;-80
2024/01/23 05:16:21;;;;;;;5.50;2.75;;;8.70;99.90;;;;;;4899327;29;20230;-77
2024/01/23 05:18:48;;;;;;;5.05;2.05;;;8.70;99.90;;;;;;4898938;29;20665;-80
2024/01/23 05:21:15;;;;;;;4.80;2.20;;;8.70;99.90;;;;;;4899256;29;20259;-77
2024/01/23 05:23:42;;;;;;;5.93;3.15;;;8.70;99.90;;;;;;4898564;29;20238;-77
2024/01/23 05:26:09;;;;;;;7.85;2.10;;;8.70;99.90;;;;;;4898963;29;20250;-77
2024/01/23 05:28:36;;;;;;;4.80;1.80;;;8.70;99.90;;;;;;4888540;29;20234;-77
2024/01/23 05:31:05;;;;;;;5.15;2.13;;;8.70;99.90;;;;;;4898397;29;20257;-77
2024/01/23 05:33:32;;;;;;;6.90;2.63;;;8.60;99.90;;;;;;4898451;29;20257;-80
2024/01/23 05:35:59;;;;;;;2.25;1.70;;;8.70;99.90;;;;;;4898871;29;20232;-80
2024/01/23 05:38:26;;;;;;;2.53;1.60;;;8.70;99.90;;;;;;4898569;29;20241;-77
2024/01/23 05:40:53;;;;;;;9.10;2.97;;;8.70;99.90;;;;;;4894894;29;20233;-80
2024/01/23 05:43:20;;;;;;;3.33;2.22;;;8.60;99.90;;;;;;4898852;29;20573;-77
2024/01/23 05:45:47;;;;;;;2.83;2.40;;;8.70;99.90;;;;;;4897940;29;20240;-78
2024/01/23 05:48:15;;;;;;;5.40;2.00;;;8.70;99.90;;;;;;4898718;29;20568;-77
2024/01/23 05:50:42;;;;;;;4.70;1.95;;;8.70;99.90;;;;;;4898184;29;20234;-77
2024/01/23 05:53:10;;;;;;;4.10;1.95;;;8.70;99.90;;;;;;4898575;29;20689;-78
2024/01/23 05:55:37;;;;;;;11.10;1.85;;;8.80;99.90;;;;;;4898032;29;20238;-78
2024/01/23 05:58:05;;;;;;;8.43;2.55;;;8.70;99.90;;;;;;4898599;29;20229;-77
2024/01/23 06:00:32;;;;;;;4.68;2.40;;;8.70;99.90;;;;;;4898133;29;20297;-77
2024/01/23 06:02:59;;;;;;;3.92;1.80;;;8.60;99.90;;;;;;4898438;29;20642;-77
2024/01/23 06:05:30;;;;;;;4.63;2.15;;;8.60;99.90;;;;;;4898321;29;20293;-78
2024/01/23 06:07:57;;;;;;;8.80;2.05;;;8.60;99.90;;;;;;4897715;29;20257;-79
2024/01/23 06:10:25;;;;;;;3.10;2.17;;;8.50;99.90;;;;;;4897561;29;20237;-76
2024/01/23 06:12:53;;;;;;;4.50;2.17;;;8.50;99.90;;;;;;4897367;29;20752;-79
2024/01/23 06:15:20;;;;;;;7.47;2.38;;;8.50;99.90;;;;;;4897944;29;20230;-77
2024/01/23 06:17:47;;;;;;;8.70;4.90;;;8.60;99.90;;;;;;4897714;29;20234;-77
2024/01/23 06:20:15;;;;;;;8.95;5.38;;;8.60;99.90;;;;;;4898052;29;20320;-77
2024/01/23 06:22:43;;;;;;;5.82;3.50;;;8.60;99.90;;;;;;4897488;29;20234;-77
2024/01/23 06:25:15;;;;;;;5.70;2.85;;;8.60;99.90;;;;;;4898261;29;20226;-77
2024/01/23 06:27:44;;;;;;;7.85;2.67;;;8.50;99.90;;;;;;4897555;29;20237;-77
2024/01/23 06:30:13;;;;;;;5.53;1.83;;;8.50;99.90;;;;;;4897882;29;20226;-77
2024/01/23 06:32:40;;;;;;;7.70;2.33;;;8.50;99.90;;;;;;4897574;29;20728;-77
2024/01/23 06:35:08;;;;;;;9.20;2.22;;;8.50;99.90;;;;;;4898171;29;20229;-77
2024/01/23 06:37:36;;;;;;;11.13;3.50;;;8.50;99.90;;;;;;4897555;29;20230;-76
2024/01/23 06:40:05;;;;;;;8.27;3.03;;;8.50;99.90;;;;;;4898208;29;20612;-76
2024/01/23 06:42:32;;;;;;;5.90;2.20;;;8.50;99.90;;;;;;4898062;29;20258;-76
2024/01/23 06:44:59;;;;;;;3.60;2.35;;;8.60;99.90;;;;;;4897585;29;20706;-76
2024/01/23 06:47:27;;;;;;;3.95;1.88;;;8.60;99.90;;;;;;4897932;29;20233;-76
2024/01/23 06:49:54;;;;;;;5.00;2.35;;;8.60;99.90;;;;;;4897790;29;20261;-77
2024/01/23 06:52:21;;;;;;;10.43;2.72;;;8.60;99.90;;;;;;4898014;29;20673;-77
2024/01/23 06:54:48;;;;;;;6.30;2.22;;;8.60;99.90;;;;;;4897480;29;20689;-76
2024/01/23 06:57:16;;;;;;;5.75;2.55;;;8.70;99.90;;;;;;4898199;29;20234;-76
2024/01/23 06:59:43;;;;;;;10.10;4.40;;;8.70;99.90;;;;;;4897343;29;20241;-77
2024/01/23 07:02:11;;;;;;;8.90;3.10;;;8.70;99.90;;;;;;4898071;29;20245;-76
2024/01/23 07:04:40;;;;;;;7.68;5.57;;;8.70;99.90;;;;;;4897821;29;20233;-76
2024/01/23 07:07:07;;;;;;;12.48;5.30;;;8.70;99.90;;;;;;4897333;29;20317;-76
2024/01/23 07:09:34;;;;;;;11.43;3.92;;;8.70;99.90;;;;;;4898091;29;20310;-77
2024/01/23 07:12:02;;;;;;;9.90;3.80;;;8.80;99.90;;;;;;4897011;29;20248;-77
2024/01/23 07:14:33;;;;;;;12.13;5.15;;;8.80;99.90;;;;;;4897866;29;20230;-77
2024/01/23 07:17:01;;;;;;;6.95;3.00;;;8.80;99.90;;;;;;4897418;29;20249;-77
2024/01/23 07:19:30;;;;;;;9.55;3.67;;;8.80;99.90;;;;;;4897896;29;20234;-80
2024/01/23 07:21:57;;;;;;;8.63;3.15;;;8.70;99.90;;;;;;4899828;29;20226;-80
2024/01/23 07:24:27;;;;;;;9.32;3.63;;;8.80;99.90;;;;;;4901372;29;20234;-79
2024/01/23 07:26:54;;;;;;;6.90;3.90;;;8.80;99.90;;;;;;4900921;29;20258;-79
2024/01/23 07:29:21;;;;;;;5.65;2.60;;;8.70;99.90;;;;;;4901238;29;20626;-80
2024/01/23 07:31:49;;;;;;;8.95;4.53;;;8.80;99.90;;;;;;4900683;29;20326;-79
2024/01/23 07:34:17;;;;;;;7.95;3.85;;;8.80;99.90;;;;;;4901028;29;20226;-80
2024/01/23 07:36:44;;;;;;;6.90;3.10;;;8.80;99.90;;;;;;4900751;29;20225;-79
2024/01/23 07:39:12;;;;;;;15.07;4.25;;;8.90;99.90;;;;;;4900332;29;20230;-80
2024/01/23 07:41:39;;;;;;;4.82;2.88;;;8.80;99.90;;;;;;4900723;29;20286;-80
2024/01/23 07:44:06;;;;;;;12.13;5.10;;;8.80;99.90;;;;;;4900097;29;20238;-80
2024/01/23 07:46:34;;;;;;;7.13;3.10;;;8.90;99.90;;;;;;4901078;29;20234;-80
2024/01/23 07:49:03;;;;;;;8.18;3.33;;;8.90;99.90;;;;;;4900273;29;20241;-80
2024/01/23 07:51:30;;;;;;;9.73;4.25;;;9.00;99.90;;;;;;4900551;29;20238;-80
2024/01/23 07:53:57;;;;;;;7.55;3.28;;;9.00;99.90;;;;;;4900671;29;20256;-79
2024/01/23 07:56:24;;;;;;;10.48;3.85;;;9.00;99.90;;;;;;4900634;29;20237;-80
2024/01/23 07:58:51;;;;;;;11.73;4.20;;;9.10;99.90;;;;;;4900391;29;20233;-80
2024/01/23 08:01:19;;;;;;;12.05;3.55;;;9.10;99.90;;;;;;4900114;29;20236;-79
2024/01/23 08:03:45;;;;;;;8.13;3.58;;;9.20;99.90;;;;;;4900476;29;20245;-80
2024/01/23 08:06:14;;;;;;;4.07;2.50;;;9.10;99.90;;;;;;4900026;29;20245;-80
2024/01/23 08:08:44;;;;;;;7.95;2.38;;;9.20;99.90;;;;;;4900504;29;20235;-80
2024/01/23 08:11:12;;;;;;;9.38;2.88;;;9.10;99.90;;;;;;4899392;29;20236;-79
2024/01/23 08:13:39;;;;;;;6.60;3.00;;;9.10;99.90;;;;;;4900291;29;20548;-79
2024/01/23 08:16:09;;;;;;;10.20;2.75;;;9.10;99.90;;;;;;4899862;29;20240;-81
2024/01/23 08:18:36;;;;;;;7.68;4.38;;;9.10;99.90;;;;;;4900213;29;20581;-81
2024/01/23 08:21:03;;;;;;;10.73;3.00;;;9.20;99.90;;;;;;4899368;29;20536;-80
2024/01/23 08:23:32;;;;;;;11.65;3.90;;;9.20;99.90;;;;;;4900232;29;20704;-78
2024/01/23 08:25:59;;;;;;;8.52;2.83;;;9.20;99.90;;;;;;4899818;29;20316;-80
2024/01/23 08:28:25;;;;;;;10.27;4.65;;;9.30;99.90;;;;;;4890332;29;20586;-78
2024/01/23 08:30:57;;;;;;;6.03;3.50;;;9.30;99.90;;;;;;4900065;29;20233;-78
2024/01/23 08:33:24;;;;;;;8.57;3.33;;;9.30;99.90;;;;;;4898765;29;20474;-80
2024/01/23 08:35:52;;;;;;;10.07;3.00;;;9.30;99.90;;;;;;4899935;29;20317;-81
2024/01/23 08:38:19;;;;;;;9.02;3.50;;;9.30;99.90;;;;;;4899103;29;20711;-81
2024/01/23 08:40:47;;;;;;;9.77;3.75;;;9.30;99.90;;;;;;4899604;29;20245;-81
2024/01/23 08:43:14;;;;;;;8.52;3.50;;;9.30;99.90;;;;;;4899026;29;20756;-81
2024/01/23 08:45:41;;;;;;;10.48;3.30;;;9.30;99.90;;;;;;4899930;29;20230;-81
2024/01/23 08:48:08;;;;;;;12.65;3.97;;;9.40;99.90;;;;;;4899229;29;20254;-78
2024/01/23 08:50:36;;;;;;;7.45;3.40;;;9.30;99.90;;;;;;4899383;29;20261;-78
2024/01/23 08:53:03;;;;;;;6.20;3.25;;;9.40;99.90;;;;;;4898921;29;20289;-78
2024/01/23 08:55:31;;;;;;;7.15;3.88;;;9.30;99.90;;;;;;4899651;29;20728;-78
2024/01/23 08:57:59;;;;;;;11.48;3.85;;;9.40;99.90;;;;;;4899880;29;20221;-78
2024/01/23 09:00:26;;;;;;;10.10;3.90;;;9.40;99.90;;;;;;4899056;29;20636;-78
2024/01/23 09:02:53;;;;;;;8.77;3.33;;;9.40;99.90;;;;;;4899489;29;20236;-80
2024/01/23 09:05:22;;;;;;;6.80;3.05;;;9.40;99.90;;;;;;4898022;29;20240;-78
2024/01/23 09:07:49;;;;;;;7.40;2.55;;;9.50;99.90;;;;;;4899327;29;20237;-81
2024/01/23 09:10:17;;;;;;;10.05;3.78;;;9.50;99.90;;;;;;4898708;29;20711;-80
2024/01/23 09:12:44;;;;;;;10.57;3.55;;;9.50;99.90;;;;;;4899528;29;20230;-80
2024/01/23 09:15:12;;;;;;;7.32;2.80;;;9.60;99.90;;;;;;4898710;29;20707;-80
2024/01/23 09:17:40;;;;;;;7.60;2.95;;;9.60;99.90;;;;;;4899065;29;20669;-80
2024/01/23 09:20:07;;;;;;;10.38;3.65;;;9.50;99.90;;;;;;4898199;29;20298;-80
2024/01/23 09:22:34;;;;;;;7.38;3.60;;;9.60;99.90;;;;;;4899090;29;20241;-78
2024/01/23 09:25:03;;;;;;;11.20;4.57;;;9.50;99.90;;;;;;4899201;29;20312;-80
2024/01/23 09:27:30;;;;;;;15.63;4.25;;;9.60;99.90;;;;;;4898225;29;20246;-80
2024/01/23 09:29:57;;;;;;;9.00;3.30;;;9.60;99.90;;;;;;4898983;29;20700;-77
2024/01/23 09:32:26;;;;;;;6.85;3.20;;;9.60;99.90;;;;;;4898276;29;20904;-77
2024/01/23 09:34:53;;;;;;;7.97;2.83;;;9.70;99.90;;;;;;4898929;29;20230;-77
2024/01/23 09:37:20;;;;;;;14.73;3.80;;;9.70;99.90;;;;;;4898461;29;20226;-78
2024/01/23 09:39:49;;;;;;;8.80;3.17;;;9.70;99.90;;;;;;4898854;29;20230;-79
2024/01/23 09:42:17;;;;;;;8.90;3.10;;;9.70;99.90;;;;;;4898288;29;20233;-80
2024/01/23 09:44:44;;;;;;;9.88;3.20;;;9.70;99.90;;;;;;4898248;29;20320;-80
2024/01/23 09:47:12;;;;;;;9.20;4.30;;;9.80;99.90;;;;;;4897757;29;20244;-78
2024/01/23 09:49:46;;;;;;;7.63;3.78;;;9.70;99.90;;;;;;4898894;29;20237;-77
2024/01/23 09:52:15;;;;;;;7.82;3.97;;;9.80;99.90;;;;;;4898118;29;20226;-80
2024/01/23 09:54:42;;;;;;;14.45;7.53;;;9.90;99.90;;;;;;4898705;29;20230;-77
2024/01/23 09:57:14;;;;;;;17.05;6.55;;;9.90;99.90;;;;;;4897922;29;20260;-80
2024/01/23 09:59:41;;;;;;;11.07;4.40;;;9.90;99.90;;;;;;4898681;29;20313;-77
2024/01/23 10:02:10;;;;;;;11.30;4.65;;;9.90;99.90;;;;;;4898405;29;20241;-80
2024/01/23 10:04:38;;;;;;;11.10;3.60;;;9.80;99.90;;;;;;4898205;29;20219;-77
2024/01/23 10:07:09;;;;;;;7.65;3.97;;;9.80;99.90;;;;;;4898411;29;20309;-77
2024/01/23 10:09:38;;;;;;;10.57;3.70;;;9.80;99.90;;;;;;4897736;29;20241;-77
2024/01/23 10:12:05;;;;;;;10.10;3.22;;;9.80;99.90;;;;;;4897960;29;20242;-77
2024/01/23 10:14:32;;;;;;;12.57;3.35;;;9.80;99.90;;;;;;4898267;29;20248;-77
2024/01/23 10:16:59;;;;;;;13.85;4.00;;;9.70;99.90;;;;;;4898150;29;20233;-77
2024/01/23 10:19:26;;;;;;;10.05;3.53;;;9.80;99.90;;;;;;4897749;29;20388;-78
2024/01/23 10:21:55;;;;;;;14.02;4.07;;;9.80;99.90;;;;;;4897462;29;20222;-77
2024/01/23 10:24:26;;;;;;;9.27;3.50;;;9.90;99.90;;;;;;4894679;29;20615;-77
2024/01/23 10:26:54;;;;;;;17.52;4.43;;;9.90;99.90;;;;;;4898745;29;20316;-80
2024/01/23 10:29:21;;;;;;;15.57;4.00;;;9.90;99.90;;;;;;4898055;29;20241;-81
2024/01/23 10:31:49;;;;;;;13.10;3.65;;;9.90;99.90;;;;;;4897787;29;20241;-79
2024/01/23 10:34:16;;;;;;;11.00;3.65;;;9.90;99.90;;;;;;4898432;29;20230;-79
2024/01/23 10:36:43;;;;;;;12.40;4.05;;;9.90;99.90;;;;;;4897924;29;20222;-80
2024/01/23 10:39:11;;;;;;;9.13;3.55;;;9.90;99.90;;;;;;4898078;29;20226;-80
2024/01/23 10:41:41;;;;;;;12.82;3.70;;;9.90;99.90;;;;;;4897857;29;20257;-80
2024/01/23 10:44:10;;;;;;;10.88;3.50;;;9.90;99.90;;;;;;4897935;29;20236;-80
2024/01/23 10:46:38;;;;;;;8.18;2.70;;;9.90;99.90;;;;;;4897480;29;20233;-81
2024/01/23 10:49:06;;;;;;;13.15;4.30;;;9.90;99.90;;;;;;4898137;29;20230;-80
2024/01/23 10:51:37;;;;;;;5.10;2.67;;;9.90;99.90;;;;;;4897569;29;20233;-80
2024/01/23 10:54:09;;;;;;;14.40;4.47;;;9.90;99.90;;;;;;4897954;29;20240;-80
2024/01/23 10:56:45;;;;;;;8.45;3.33;;;9.90;99.90;;;;;;4900217;29;20230;-80
2024/01/23 10:59:18;;;;;;;14.15;3.33;;;9.90;99.90;;;;;;4902682;29;20230;-81
2024/01/23 11:01:46;;;;;;;15.23;4.10;;;9.90;99.90;;;;;;4902393;29;20226;-80
2024/01/23 11:04:15;;;;;;;11.65;4.10;;;9.90;99.90;;;;;;4901902;29;20230;-79
2024/01/23 11:06:49;;;;;;;9.02;3.72;;;9.90;99.90;;;;;;4901293;29;20226;-80
2024/01/23 11:09:22;;;;;;;10.50;3.72;;;10.00;99.90;;;;;;4901848;29;20568;-79
2024/01/23 11:12:01;;;;;;;8.18;3.20;;;9.90;99.90;;;;;;4900719;29;20230;-80
2024/01/23 11:14:32;;;;;;;9.90;3.75;;;9.90;99.90;;;;;;4901157;29;20233;-80
2024/01/23 11:17:03;;;;;;;9.73;4.35;;;9.90;99.90;;;;;;4901741;29;20242;-80
2024/01/23 11:19:30;;;;;;;13.23;3.95;;;9.90;99.90;;;;;;4900636;29;20285;-80
2024/01/23 11:22:02;;;;;;;8.30;3.65;;;9.90;99.90;;;;;;4901266;29;20230;-79
2024/01/23 11:24:43;;;;;;;10.32;3.53;;;9.90;99.90;;;;;;4900859;29;20689;-80
2024/01/23 11:27:20;;;;;;;9.98;4.15;;;9.90;99.90;;;;;;4901443;29;20253;-79
2024/01/23 11:29:48;;;;;;;7.97;3.42;;;9.80;99.90;;;;;;4901010;29;20625;-79
2024/01/23 11:32:19;;;;;;;7.68;4.13;;;9.80;99.90;;;;;;4901146;29;20238;-78
2024/01/23 11:34:46;;;;;;;8.23;4.07;;;9.70;99.90;;;;;;4900605;29;20673;-79
2024/01/23 11:37:36;;;;;;;9.57;4.38;;;9.70;99.90;;;;;;4901183;29;20230;-80
2024/01/23 11:40:05;;;;;;;10.00;3.40;;;9.70;99.90;;;;;;4901391;29;20225;-80
2024/01/23 11:42:43;;;;;;;7.93;3.55;;;9.70;99.90;;;;;;4900744;29;20246;-80
2024/01/23 11:45:22;;;;;;;16.00;3.95;;;9.70;99.90;;;;;;4899838;29;20222;-80
2024/01/23 11:47:54;;;;;;;10.35;3.10;;;9.70;99.90;;;;;;4901005;29;20226;-80
2024/01/23 11:50:21;;;;;;;15.48;4.72;;;9.70;99.90;;;;;;4899966;29;20241;-80
2024/01/23 11:52:51;;;;;;;9.27;4.13;;;9.80;99.90;;;;;;4900811;29;20238;-80
2024/01/23 11:55:19;;;;;;;11.95;4.18;;;9.80;99.90;;;;;;4900151;29;20236;-79
2024/01/23 11:57:49;;;;;;;10.38;3.90;;;9.90;99.90;;;;;;4900715;29;20681;-80
2024/01/23 12:00:18;;;;;;;16.45;5.22;;;9.90;99.90;;;;;;4900238;29;20741;-80
2024/01/23 12:02:46;;;;;;;12.98;5.47;;;9.90;99.90;;;;;;4900727;29;20234;-80
2024/01/23 12:05:13;;;;;;;13.00;6.10;;;10.00;99.90;;;;;;4900014;29;20222;-79
2024/01/23 12:07:40;;;;;;;14.68;5.93;;;10.00;99.90;;;;;;4899394;29;20241;-80
2024/01/23 12:10:09;;;;;;;11.85;4.93;;;10.00;99.90;;;;;;4900504;29;20233;-80
2024/01/23 12:12:37;;;;;;;10.25;4.90;;;10.00;99.90;;;;;;4899947;29;20545;-79
2024/01/23 12:15:07;;;;;;;15.07;5.30;;;10.00;99.90;;;;;;4900186;29;20709;-80
2024/01/23 12:17:34;;;;;;;10.27;4.78;;;10.10;99.90;;;;;;4899980;29;20302;-80
2024/01/23 12:20:05;;;;;;;10.00;4.63;;;10.10;99.90;;;;;;4900328;29;20755;-80
2024/01/23 12:22:32;;;;;;;11.75;4.00;;;10.20;99.90;;;;;;4899926;29;20234;-80
2024/01/23 12:25:00;;;;;;;12.80;4.35;;;10.10;99.90;;;;;;4900430;29;20226;-76
2024/01/23 12:27:27;;;;;;;15.25;4.72;;;10.10;99.90;;;;;;4899632;29;20230;-76
2024/01/23 12:29:54;;;;;;;13.88;5.60;;;10.20;99.90;;;;;;4900377;29;20240;-76
2024/01/23 12:32:26;;;;;;;19.13;4.38;;;10.20;99.90;;;;;;4898333;29;20245;-76
2024/01/23 12:34:54;;;;;;;11.35;3.85;;;10.20;99.90;;;;;;4899474;29;20237;-77
2024/01/23 12:37:24;;;;;;;15.95;5.47;;;10.20;99.90;;;;;;4899658;29;20688;-77
2024/01/23 12:39:51;;;;;;;18.75;4.30;;;10.20;99.90;;;;;;4899748;29;20226;-77
2024/01/23 12:42:18;;;;;;;11.68;4.72;;;10.20;99.90;;;;;;4899294;29;20237;-77
2024/01/23 12:44:45;;;;;;;13.43;3.78;;;10.20;99.90;;;;;;4900319;29;20294;-77
2024/01/23 12:47:14;;;;;;;9.15;4.60;;;10.30;99.90;;;;;;4899884;29;20286;-77
2024/01/23 12:49:43;;;;;;;16.88;4.40;;;10.20;99.90;;;;;;4899448;29;20514;-76
2024/01/23 12:52:17;;;;;;;12.45;4.75;;;10.30;99.90;;;;;;4899370;29;20227;-76
2024/01/23 12:54:44;;;;;;;16.25;6.05;;;10.30;99.90;;;;;;4899302;29;20247;-77
2024/01/23 12:57:12;;;;;;;20.17;8.05;;;10.40;99.90;;;;;;4899466;29;20230;-76